Terminal Aerodrome Forecast
Issued by NWS

Home | Current Version | Previous Version | Text Only | Print | Product List | Glossary On
Versions: 1 2 3 4 5 6 7 8 9 10 11 12 13 14 15 16 17 18 19
848
FTUS42 KMLB 251732
TAFFPR
TAF
KFPR 251732Z 2518/2618 12012G20KT P6SM FEW040
     FM260600 11004KT P6SM SKC
     FM261500 10009KT P6SM SCT060=

USA.gov is the U.S. government's official web portal to all federal, state and local government web resources and services.